Terminal Aerodrome Forecast
Issued by NWS

Home | Current Version | Previous Version | Text Only | Print | Product List | Glossary On
Versions: 1 2 3 4 5 6 7 8 9 10 11 12 13 14 15 16 17 18
000
FTUS44 KMAF 122300
TAFFST
TAF
KFST 122330Z 1300/1324 15015G23KT P6SM SCT200
     FM130300 15010KT P6SM SCT200
     FM131500 14013G22KT P6SM FEW100 SCT250=

USA.gov is the U.S. government's official web portal to all federal, state and local government web resources and services.